Flight Track Log - Related Links

Times and Time Zones

All times are in EDT time to prevent confusion due to time zone crossing. See the ASQ6126 flight status page for this flight to view local times or setup timezone preferences in your user account.

Time Position Orientation Groundspeed Altitude Reporting Facility
EDT Latitude Longitude Course Direction KTS MPH feet Rate Location/Type
Tue 10:51:10 PM 41.9500 -87.9667 254° West 206 237 3,100  Level Chicago TRACON
Tue 10:52:10 PM 41.9333 -88.0667 257° West 255 293 4,900 942 Climbing Chicago TRACON
Tue 10:53:11 PM 41.9269 -88.1439 264° West 251 289 5,000 1,033 Climbing Chicago Center
Tue 10:54:12 PM 41.9269 -88.2408 270° West 260 299 7,000 2,390 Climbing Chicago Center
Tue 10:55:14 PM 41.9236 -88.3397 267° West 277 319 9,900 2,244 Climbing Chicago Center
Tue 10:56:00 PM 41.8294 -88.5012 254° West  Level FlightAware Approximate
Tue 10:56:15 PM 41.8678 -88.4417 234° Southwest 290 334 11,600  Level Chicago Center
Tue 10:57:16 PM 41.8197 -88.5414 237° Southwest 315 362 13,800 1,935 Climbing Chicago Center
Tue 10:58:19 PM 41.7939 -88.6589 254° West 328 377 15,600 1,475 Climbing Chicago Center
Tue 10:59:18 PM 41.7644 -88.7822 252° West 345 397 16,800 1,041 Climbing Chicago Center
Tue 11:00:20 PM 41.7339 -88.9142 253° West 366 421 17,700 1,024 Climbing Chicago Center
Tue 11:01:21 PM 41.7031 -89.0508 253° West 385 443 18,900 1,033 Climbing Chicago Center
Tue 11:02:22 PM 41.6711 -89.1869 253° West 386 444 19,800 1,082 Climbing Chicago Center
Tue 11:03:23 PM 41.6325 -89.3550 253° West 394 453 21,100 1,180 Climbing Chicago Center
Tue 11:04:24 PM 41.6003 -89.4922 253° West 390 449 22,200 1,073 Climbing Chicago Center
Tue 11:05:26 PM 41.5708 -89.6133 252° West 389 448 23,300 878 Climbing Chicago Center
Tue 11:06:27 PM 41.5394 -89.7492 253° West 386 444 24,000 344 Climbing Chicago Center
Tue 11:07:28 PM 41.5047 -89.8889 252° West 395 455 24,000  Level Chicago Center
Tue 11:08:29 PM 41.4644 -90.0578 252° West 400 460 24,000  Level Chicago Center
Tue 11:09:30 PM 41.4228 -90.1961 248° West 402 463 24,000  Level Chicago Center
Tue 11:10:32 PM 41.3636 -90.3233 238° Southwest 406 467 24,000  Level Chicago Center
Tue 11:11:33 PM 41.3050 -90.4506 239° Southwest 406 467 24,000  Level Chicago Center
Tue 11:12:34 PM 41.2458 -90.5800 239° Southwest 412 474 24,000  Level Chicago Center
Tue 11:13:35 PM 41.1861 -90.7072 238° Southwest 410 472 24,000 -885 Level Chicago Center
Tue 11:14:36 PM 41.1275 -90.8317 238° Southwest 402 463 22,200 -1,770 Descending Chicago Center
Tue 11:15:37 PM 41.0683 -90.9561 238° Southwest 400 460 20,400 -1,073 Descending Chicago Center
Tue 11:16:39 PM 41.0097 -91.0836 239° Southwest 404 465 20,000 -195 Descending Chicago Center
Tue 11:17:40 PM 40.9383 -91.2339 238° Southwest 403 464 20,000  Level Chicago Center
Tue 11:18:41 PM 40.8875 -91.3428 238° Southwest 397 457 20,000  Level Chicago Center
Tue 11:19:42 PM 40.8283 -91.4658 238° Southwest 399 459 20,000  Level Chicago Center
Tue 11:20:43 PM 40.7686 -91.5886 237° Southwest 400 460 20,000  Level Chicago Center
Tue 11:21:44 PM 40.7000 -91.7328 238° Southwest 392 451 20,000  Level Chicago Center
Tue 11:22:46 PM 40.6425 -91.8506 237° Southwest 387 445 20,000  Level Chicago Center
Tue 11:23:17 PM 40.6186 -91.8969 236° Southwest 385 443 20,000  Level Kansas City Center
Tue 11:24:19 PM 40.5492 -92.0442 238° Southwest 394 453 20,000  Level Kansas City Center
Tue 11:25:20 PM 40.4886 -92.1653 237° Southwest 398 458 20,000  Level Kansas City Center
Tue 11:26:21 PM 40.4306 -92.2850 238° Southwest 395 455 20,000  Level Kansas City Center
Tue 11:27:22 PM 40.3744 -92.4003 237° Southwest 391 450 20,000  Level Kansas City Center
Tue 11:28:24 PM 40.3108 -92.5278 237° Southwest 387 445 20,000  Level Kansas City Center
Tue 11:29:25 PM 40.2556 -92.6394 237° Southwest 384 442 20,000  Level Kansas City Center
Tue 11:30:26 PM 40.1903 -92.7711 237° Southwest 385 443 20,000  Level Kansas City Center
Tue 11:31:27 PM 40.1350 -92.8825 237° Southwest 382 440 20,000  Level Kansas City Center
Tue 11:32:28 PM 40.0781 -92.9953 237° Southwest 384 442 20,000 -197 Level Kansas City Center
Tue 11:33:29 PM 40.0197 -93.1111 237° Southwest 385 443 19,600 -1,024 Descending Kansas City Center
Tue 11:34:31 PM 39.9628 -93.2222 236° Southwest 375 432 17,900 -1,561 Descending Kansas City Center
Tue 11:35:32 PM 39.9056 -93.3358 237° Southwest 376 433 16,400 -1,672 Descending Kansas City Center
Tue 11:36:33 PM 39.8381 -93.4711 237° Southwest 375 432 14,500 -1,672 Descending Kansas City Center
Tue 11:37:34 PM 39.7833 -93.5753 236° Southwest 358 412 13,000 -1,230 Descending Kansas City Center
Tue 11:38:35 PM 39.7292 -93.6831 237° Southwest 358 412 12,000 -738 Descending Kansas City Center
Tue 11:39:36 PM 39.6742 -93.7906 236° Southwest 351 404 11,500 -878 Descending Kansas City Center
Tue 11:40:38 PM 39.6247 -93.8872 236° Southwest 338 389 10,200 -732 Descending Kansas City Center
Tue 11:41:39 PM 39.5689 -94.0017 238° Southwest 334 384 10,000 -98 Descending Kansas City Center
Tue 11:42:40 PM 39.5214 -94.0997 238° Southwest 336 387 10,000 -49 Level Kansas City Center
Tue 11:43:41 PM 39.4764 -94.1919 238° Southwest 305 351 9,900 -1,082 Descending Kansas City Center
Tue 11:44:42 PM 39.4333 -94.2789 237° Southwest 259 298 7,800 -1,770 Descending Kansas City Center
Tue 11:45:43 PM 39.3931 -94.3517 234° Southwest 259 298 6,300 -1,820 Descending Kansas City Center
Tue 11:46:44 PM 39.3508 -94.4381 238° Southwest 255 293 4,100 -1,672 Descending Kansas City Center
Tue 11:47:45 PM 39.3167 -94.5100 238° Southwest 244 281 2,900 -732 Descending Kansas City Center
Tue 11:48:47 PM 39.2847 -94.5781 239° Southwest 233 268 2,600 -488 Descending Kansas City Center
Tue 11:49:48 PM 39.2831 -94.6342 268° West 137 158 1,900 -639 Descending Kansas City Center
Tue 11:50:49 PM 39.2867 -94.6792 276° West 132 152 1,300 -590 Descending Kansas City Center
Tue 11:52:00 PM 39.2833 -94.7000 270° West  Level FlightAware Approximate
Tue 11:59:00 PM 39.2976 -94.7139 270° West  Level Estimated

Login

Don't have an account? Register now (free) for customized features, flight alerts, and more!